sensor_id;sensor_type;location;lat;lon;timestamp;P1;durP1;ratioP1;P2;durP2;ratioP2
64188;SDS011;50493;50.970;10.082;2022-09-09T00:00:48;3.65;;;1.73;;
64188;SDS011;50493;50.970;10.082;2022-09-09T00:03:20;3.25;;;1.70;;
64188;SDS011;50493;50.970;10.082;2022-09-09T00:05:51;3.13;;;1.85;;
64188;SDS011;50493;50.970;10.082;2022-09-09T00:08:28;3.03;;;1.40;;
64188;SDS011;50493;50.970;10.082;2022-09-09T00:11:04;2.75;;;1.75;;
64188;SDS011;50493;50.970;10.082;2022-09-09T00:13:31;2.72;;;1.83;;
64188;SDS011;50493;50.970;10.082;2022-09-09T00:16:02;2.65;;;1.63;;
64188;SDS011;50493;50.970;10.082;2022-09-09T00:18:44;2.70;;;1.52;;
64188;SDS011;50493;50.970;10.082;2022-09-09T00:21:16;3.38;;;1.63;;
64188;SDS011;50493;50.970;10.082;2022-09-09T00:23:44;2.35;;;1.50;;
64188;SDS011;50493;50.970;10.082;2022-09-09T00:26:16;2.50;;;1.50;;
64188;SDS011;50493;50.970;10.082;2022-09-09T00:28:48;3.70;;;1.80;;
64188;SDS011;50493;50.970;10.082;2022-09-09T00:31:20;3.03;;;1.77;;
64188;SDS011;50493;50.970;10.082;2022-09-09T00:33:49;3.67;;;1.50;;
64188;SDS011;50493;50.970;10.082;2022-09-09T00:36:18;3.67;;;1.60;;
64188;SDS011;50493;50.970;10.082;2022-09-09T00:38:49;2.22;;;1.55;;
64188;SDS011;50493;50.970;10.082;2022-09-09T00:41:21;3.22;;;1.50;;
64188;SDS011;50493;50.970;10.082;2022-09-09T00:43:56;3.70;;;1.70;;
64188;SDS011;50493;50.970;10.082;2022-09-09T00:49:23;3.55;;;1.60;;
64188;SDS011;50493;50.970;10.082;2022-09-09T00:52:03;2.25;;;1.60;;
64188;SDS011;50493;50.970;10.082;2022-09-09T00:54:44;3.05;;;1.65;;
64188;SDS011;50493;50.970;10.082;2022-09-09T00:57:22;2.25;;;1.50;;
64188;SDS011;50493;50.970;10.082;2022-09-09T00:59:52;5.20;;;1.60;;
64188;SDS011;50493;50.970;10.082;2022-09-09T01:02:42;3.30;;;1.70;;
64188;SDS011;50493;50.970;10.082;2022-09-09T01:05:16;4.43;;;1.70;;
64188;SDS011;50493;50.970;10.082;2022-09-09T01:07:47;2.47;;;1.50;;
64188;SDS011;50493;50.970;10.082;2022-09-09T01:10:17;2.75;;;1.60;;
64188;SDS011;50493;50.970;10.082;2022-09-09T01:12:51;2.85;;;1.55;;
64188;SDS011;50493;50.970;10.082;2022-09-09T01:15:21;2.78;;;1.80;;
64188;SDS011;50493;50.970;10.082;2022-09-09T01:17:52;2.25;;;1.63;;
64188;SDS011;50493;50.970;10.082;2022-09-09T01:20:24;2.45;;;1.58;;
64188;SDS011;50493;50.970;10.082;2022-09-09T01:23:02;2.72;;;1.65;;
64188;SDS011;50493;50.970;10.082;2022-09-09T01:28:39;3.25;;;1.70;;
64188;SDS011;50493;50.970;10.082;2022-09-09T01:31:07;2.80;;;1.80;;
64188;SDS011;50493;50.970;10.082;2022-09-09T01:33:36;3.08;;;1.42;;
64188;SDS011;50493;50.970;10.082;2022-09-09T01:36:03;2.47;;;1.40;;
64188;SDS011;50493;50.970;10.082;2022-09-09T01:38:33;2.42;;;1.50;;
64188;SDS011;50493;50.970;10.082;2022-09-09T01:41:00;2.35;;;1.50;;
64188;SDS011;50493;50.970;10.082;2022-09-09T01:43:28;3.70;;;1.75;;
64188;SDS011;50493;50.970;10.082;2022-09-09T01:45:56;2.30;;;1.40;;
64188;SDS011;50493;50.970;10.082;2022-09-09T01:50:51;3.30;;;1.60;;
64188;SDS011;50493;50.970;10.082;2022-09-09T01:53:17;3.45;;;1.55;;
64188;SDS011;50493;50.970;10.082;2022-09-09T01:55:44;1.80;;;1.40;;
64188;SDS011;50493;50.970;10.082;2022-09-09T01:58:23;2.50;;;1.40;;
64188;SDS011;50493;50.970;10.082;2022-09-09T02:00:56;2.30;;;1.50;;
64188;SDS011;50493;50.970;10.082;2022-09-09T02:03:28;1.67;;;1.27;;
64188;SDS011;50493;50.970;10.082;2022-09-09T02:05:55;3.33;;;1.50;;
64188;SDS011;50493;50.970;10.082;2022-09-09T02:08:33;2.78;;;1.50;;
64188;SDS011;50493;50.970;10.082;2022-09-09T02:11:05;3.15;;;1.45;;
64188;SDS011;50493;50.970;10.082;2022-09-09T02:13:34;2.83;;;1.40;;
64188;SDS011;50493;50.970;10.082;2022-09-09T02:16:04;1.95;;;1.48;;
64188;SDS011;50493;50.970;10.082;2022-09-09T02:18:35;2.85;;;1.50;;
64188;SDS011;50493;50.970;10.082;2022-09-09T02:21:05;2.03;;;1.40;;
64188;SDS011;50493;50.970;10.082;2022-09-09T02:23:31;3.22;;;1.52;;
64188;SDS011;50493;50.970;10.082;2022-09-09T02:25:59;2.00;;;1.40;;
64188;SDS011;50493;50.970;10.082;2022-09-09T02:28:26;2.78;;;1.35;;
64188;SDS011;50493;50.970;10.082;2022-09-09T02:30:55;2.75;;;1.50;;
64188;SDS011;50493;50.970;10.082;2022-09-09T02:33:22;2.40;;;1.40;;
64188;SDS011;50493;50.970;10.082;2022-09-09T02:35:51;1.90;;;1.30;;
64188;SDS011;50493;50.970;10.082;2022-09-09T02:40:48;2.47;;;1.40;;
64188;SDS011;50493;50.970;10.082;2022-09-09T02:43:14;1.70;;;1.40;;
64188;SDS011;50493;50.970;10.082;2022-09-09T02:45:44;2.75;;;1.60;;
64188;SDS011;50493;50.970;10.082;2022-09-09T02:48:20;2.45;;;1.58;;
64188;SDS011;50493;50.970;10.082;2022-09-09T02:50:57;2.47;;;1.50;;
64188;SDS011;50493;50.970;10.082;2022-09-09T02:53:32;2.42;;;1.40;;
64188;SDS011;50493;50.970;10.082;2022-09-09T02:56:05;2.60;;;1.50;;
64188;SDS011;50493;50.970;10.082;2022-09-09T02:58:38;2.47;;;1.50;;
64188;SDS011;50493;50.970;10.082;2022-09-09T03:01:05;3.20;;;1.55;;
64188;SDS011;50493;50.970;10.082;2022-09-09T03:03:32;1.95;;;1.40;;
64188;SDS011;50493;50.970;10.082;2022-09-09T03:05:58;2.00;;;1.42;;
64188;SDS011;50493;50.970;10.082;2022-09-09T03:08:23;2.10;;;1.50;;
64188;SDS011;50493;50.970;10.082;2022-09-09T03:10:48;3.08;;;1.50;;
64188;SDS011;50493;50.970;10.082;2022-09-09T03:13:14;1.83;;;1.40;;
64188;SDS011;50493;50.970;10.082;2022-09-09T03:15:40;2.97;;;1.60;;
64188;SDS011;50493;50.970;10.082;2022-09-09T03:18:05;2.58;;;1.42;;
64188;SDS011;50493;50.970;10.082;2022-09-09T03:20:32;1.92;;;1.52;;
64188;SDS011;50493;50.970;10.082;2022-09-09T03:22:59;2.00;;;1.40;;
64188;SDS011;50493;50.970;10.082;2022-09-09T03:25:25;2.30;;;1.50;;
64188;SDS011;50493;50.970;10.082;2022-09-09T03:27:51;2.35;;;1.60;;
64188;SDS011;50493;50.970;10.082;2022-09-09T03:30:19;1.83;;;1.40;;
64188;SDS011;50493;50.970;10.082;2022-09-09T03:32:44;1.98;;;1.50;;
64188;SDS011;50493;50.970;10.082;2022-09-09T03:35:10;2.30;;;1.60;;
64188;SDS011;50493;50.970;10.082;2022-09-09T03:37:37;2.45;;;1.30;;
64188;SDS011;50493;50.970;10.082;2022-09-09T03:40:04;2.70;;;1.60;;
64188;SDS011;50493;50.970;10.082;2022-09-09T03:42:31;2.58;;;1.48;;
64188;SDS011;50493;50.970;10.082;2022-09-09T03:44:56;2.88;;;1.50;;
64188;SDS011;50493;50.970;10.082;2022-09-09T03:47:22;2.05;;;1.40;;
64188;SDS011;50493;50.970;10.082;2022-09-09T03:49:48;2.67;;;1.50;;
64188;SDS011;50493;50.970;10.082;2022-09-09T03:52:13;3.28;;;1.70;;
64188;SDS011;50493;50.970;10.082;2022-09-09T03:54:40;1.95;;;1.33;;
64188;SDS011;50493;50.970;10.082;2022-09-09T03:57:07;2.58;;;1.60;;
64188;SDS011;50493;50.970;10.082;2022-09-09T03:59:33;2.55;;;1.48;;
64188;SDS011;50493;50.970;10.082;2022-09-09T04:02:00;3.47;;;1.70;;
64188;SDS011;50493;50.970;10.082;2022-09-09T04:04:25;3.67;;;1.73;;
64188;SDS011;50493;50.970;10.082;2022-09-09T04:06:51;3.53;;;1.48;;
64188;SDS011;50493;50.970;10.082;2022-09-09T04:09:16;2.90;;;1.90;;
64188;SDS011;50493;50.970;10.082;2022-09-09T04:11:43;3.92;;;1.88;;
64188;SDS011;50493;50.970;10.082;2022-09-09T04:14:08;4.15;;;2.00;;
64188;SDS011;50493;50.970;10.082;2022-09-09T04:16:34;2.92;;;1.88;;
64188;SDS011;50493;50.970;10.082;2022-09-09T04:19:01;3.38;;;1.80;;
64188;SDS011;50493;50.970;10.082;2022-09-09T04:21:29;4.05;;;1.90;;
64188;SDS011;50493;50.970;10.082;2022-09-09T04:23:54;3.22;;;1.90;;
64188;SDS011;50493;50.970;10.082;2022-09-09T04:26:20;2.58;;;1.63;;
64188;SDS011;50493;50.970;10.082;2022-09-09T04:28:46;2.85;;;1.70;;
64188;SDS011;50493;50.970;10.082;2022-09-09T04:31:15;3.42;;;1.73;;
64188;SDS011;50493;50.970;10.082;2022-09-09T04:33:42;2.42;;;1.52;;
64188;SDS011;50493;50.970;10.082;2022-09-09T04:36:08;3.70;;;1.60;;
64188;SDS011;50493;50.970;10.082;2022-09-09T04:38:33;2.15;;;1.60;;
64188;SDS011;50493;50.970;10.082;2022-09-09T04:40:58;2.70;;;1.70;;
64188;SDS011;50493;50.970;10.082;2022-09-09T04:43:24;3.13;;;1.70;;
64188;SDS011;50493;50.970;10.082;2022-09-09T04:45:53;2.60;;;1.40;;
64188;SDS011;50493;50.970;10.082;2022-09-09T04:48:19;3.28;;;1.70;;
64188;SDS011;50493;50.970;10.082;2022-09-09T04:50:53;2.83;;;1.60;;
64188;SDS011;50493;50.970;10.082;2022-09-09T04:53:19;2.75;;;1.50;;
64188;SDS011;50493;50.970;10.082;2022-09-09T04:55:44;3.17;;;1.70;;
64188;SDS011;50493;50.970;10.082;2022-09-09T04:58:10;2.75;;;1.60;;
64188;SDS011;50493;50.970;10.082;2022-09-09T05:00:35;2.70;;;1.65;;
64188;SDS011;50493;50.970;10.082;2022-09-09T05:03:03;3.42;;;1.58;;
64188;SDS011;50493;50.970;10.082;2022-09-09T05:05:30;3.90;;;2.03;;
64188;SDS011;50493;50.970;10.082;2022-09-09T05:08:00;2.40;;;1.42;;
64188;SDS011;50493;50.970;10.082;2022-09-09T05:10:26;3.08;;;1.50;;
64188;SDS011;50493;50.970;10.082;2022-09-09T05:12:52;2.95;;;1.90;;
64188;SDS011;50493;50.970;10.082;2022-09-09T05:15:18;4.53;;;1.70;;
64188;SDS011;50493;50.970;10.082;2022-09-09T05:17:45;4.00;;;1.80;;
64188;SDS011;50493;50.970;10.082;2022-09-09T05:20:12;4.38;;;1.70;;
64188;SDS011;50493;50.970;10.082;2022-09-09T05:22:37;4.32;;;1.80;;
64188;SDS011;50493;50.970;10.082;2022-09-09T05:25:03;2.83;;;1.83;;
64188;SDS011;50493;50.970;10.082;2022-09-09T05:27:29;4.13;;;2.03;;
64188;SDS011;50493;50.970;10.082;2022-09-09T05:29:56;6.63;;;1.83;;
64188;SDS011;50493;50.970;10.082;2022-09-09T05:32:22;3.72;;;1.80;;
64188;SDS011;50493;50.970;10.082;2022-09-09T05:34:48;3.22;;;1.90;;
64188;SDS011;50493;50.970;10.082;2022-09-09T05:37:14;3.95;;;1.92;;
64188;SDS011;50493;50.970;10.082;2022-09-09T05:39:41;3.78;;;2.00;;
64188;SDS011;50493;50.970;10.082;2022-09-09T05:42:06;2.83;;;1.83;;
64188;SDS011;50493;50.970;10.082;2022-09-09T05:44:32;3.45;;;1.90;;
64188;SDS011;50493;50.970;10.082;2022-09-09T05:46:57;4.07;;;1.77;;
64188;SDS011;50493;50.970;10.082;2022-09-09T05:49:22;2.75;;;1.70;;
64188;SDS011;50493;50.970;10.082;2022-09-09T05:51:48;3.40;;;1.92;;
64188;SDS011;50493;50.970;10.082;2022-09-09T05:54:16;3.20;;;1.60;;
64188;SDS011;50493;50.970;10.082;2022-09-09T05:56:42;2.78;;;1.90;;
64188;SDS011;50493;50.970;10.082;2022-09-09T05:59:08;2.63;;;1.80;;
64188;SDS011;50493;50.970;10.082;2022-09-09T06:01:34;5.78;;;1.80;;
64188;SDS011;50493;50.970;10.082;2022-09-09T06:04:00;2.78;;;1.90;;
64188;SDS011;50493;50.970;10.082;2022-09-09T06:06:27;3.05;;;1.80;;
64188;SDS011;50493;50.970;10.082;2022-09-09T06:08:56;3.35;;;1.80;;
64188;SDS011;50493;50.970;10.082;2022-09-09T06:11:27;3.38;;;1.75;;
64188;SDS011;50493;50.970;10.082;2022-09-09T06:13:56;3.28;;;1.60;;
64188;SDS011;50493;50.970;10.082;2022-09-09T06:16:22;2.80;;;1.90;;
64188;SDS011;50493;50.970;10.082;2022-09-09T06:18:49;2.47;;;1.42;;
64188;SDS011;50493;50.970;10.082;2022-09-09T06:21:16;3.03;;;1.85;;
64188;SDS011;50493;50.970;10.082;2022-09-09T06:23:43;2.97;;;1.85;;
64188;SDS011;50493;50.970;10.082;2022-09-09T06:26:12;3.20;;;1.80;;
64188;SDS011;50493;50.970;10.082;2022-09-09T06:28:40;3.35;;;1.83;;
64188;SDS011;50493;50.970;10.082;2022-09-09T06:31:08;3.20;;;1.75;;
64188;SDS011;50493;50.970;10.082;2022-09-09T06:33:35;2.45;;;1.60;;
64188;SDS011;50493;50.970;10.082;2022-09-09T06:36:04;2.88;;;1.60;;
64188;SDS011;50493;50.970;10.082;2022-09-09T06:38:30;3.13;;;1.50;;
64188;SDS011;50493;50.970;10.082;2022-09-09T06:40:56;3.17;;;1.50;;
64188;SDS011;50493;50.970;10.082;2022-09-09T06:43:23;5.57;;;1.48;;
64188;SDS011;50493;50.970;10.082;2022-09-09T06:45:54;3.22;;;1.60;;
64188;SDS011;50493;50.970;10.082;2022-09-09T06:48:20;2.97;;;1.33;;
64188;SDS011;50493;50.970;10.082;2022-09-09T06:50:46;2.00;;;1.20;;
64188;SDS011;50493;50.970;10.082;2022-09-09T06:53:12;4.78;;;1.73;;
64188;SDS011;50493;50.970;10.082;2022-09-09T06:55:37;4.00;;;1.35;;
64188;SDS011;50493;50.970;10.082;2022-09-09T06:58:03;2.70;;;1.27;;
64188;SDS011;50493;50.970;10.082;2022-09-09T07:00:33;4.10;;;1.30;;
64188;SDS011;50493;50.970;10.082;2022-09-09T07:02:59;4.53;;;1.40;;
64188;SDS011;50493;50.970;10.082;2022-09-09T07:05:25;3.85;;;1.38;;
64188;SDS011;50493;50.970;10.082;2022-09-09T07:07:51;6.00;;;1.40;;
64188;SDS011;50493;50.970;10.082;2022-09-09T07:10:16;1.95;;;1.30;;
64188;SDS011;50493;50.970;10.082;2022-09-09T07:12:42;3.20;;;1.38;;
64188;SDS011;50493;50.970;10.082;2022-09-09T07:15:08;3.53;;;1.48;;
64188;SDS011;50493;50.970;10.082;2022-09-09T07:17:34;3.35;;;1.20;;
64188;SDS011;50493;50.970;10.082;2022-09-09T07:20:01;2.78;;;1.10;;
64188;SDS011;50493;50.970;10.082;2022-09-09T07:22:29;3.00;;;1.30;;
64188;SDS011;50493;50.970;10.082;2022-09-09T07:24:54;3.85;;;1.30;;
64188;SDS011;50493;50.970;10.082;2022-09-09T07:27:19;2.63;;;1.20;;
64188;SDS011;50493;50.970;10.082;2022-09-09T07:29:45;3.30;;;1.30;;
64188;SDS011;50493;50.970;10.082;2022-09-09T07:32:10;3.78;;;1.63;;
64188;SDS011;50493;50.970;10.082;2022-09-09T07:34:36;4.30;;;1.42;;
64188;SDS011;50493;50.970;10.082;2022-09-09T07:37:02;3.20;;;1.50;;
64188;SDS011;50493;50.970;10.082;2022-09-09T07:39:28;2.38;;;1.38;;
64188;SDS011;50493;50.970;10.082;2022-09-09T07:41:53;2.80;;;1.42;;
64188;SDS011;50493;50.970;10.082;2022-09-09T07:44:23;4.43;;;1.50;;
64188;SDS011;50493;50.970;10.082;2022-09-09T07:46:49;3.00;;;1.40;;
64188;SDS011;50493;50.970;10.082;2022-09-09T07:49:15;3.58;;;1.40;;
64188;SDS011;50493;50.970;10.082;2022-09-09T07:51:41;2.17;;;1.50;;
64188;SDS011;50493;50.970;10.082;2022-09-09T07:54:10;3.25;;;1.38;;
64188;SDS011;50493;50.970;10.082;2022-09-09T07:56:37;3.63;;;1.40;;
64188;SDS011;50493;50.970;10.082;2022-09-09T07:59:04;2.83;;;1.50;;
64188;SDS011;50493;50.970;10.082;2022-09-09T08:01:31;2.13;;;1.42;;
64188;SDS011;50493;50.970;10.082;2022-09-09T08:03:59;5.22;;;1.65;;
64188;SDS011;50493;50.970;10.082;2022-09-09T08:06:26;4.88;;;1.45;;
64188;SDS011;50493;50.970;10.082;2022-09-09T08:08:53;3.95;;;1.50;;
64188;SDS011;50493;50.970;10.082;2022-09-09T08:11:22;5.55;;;1.38;;
64188;SDS011;50493;50.970;10.082;2022-09-09T08:13:49;2.33;;;1.33;;
64188;SDS011;50493;50.970;10.082;2022-09-09T08:16:17;3.25;;;1.38;;
64188;SDS011;50493;50.970;10.082;2022-09-09T08:18:46;2.72;;;1.42;;
64188;SDS011;50493;50.970;10.082;2022-09-09T08:21:13;3.63;;;1.50;;
64188;SDS011;50493;50.970;10.082;2022-09-09T08:23:39;3.72;;;1.48;;
64188;SDS011;50493;50.970;10.082;2022-09-09T08:26:06;6.10;;;1.70;;
64188;SDS011;50493;50.970;10.082;2022-09-09T08:28:36;3.58;;;1.50;;
64188;SDS011;50493;50.970;10.082;2022-09-09T08:31:10;3.17;;;1.50;;
64188;SDS011;50493;50.970;10.082;2022-09-09T08:33:37;3.38;;;1.55;;
64188;SDS011;50493;50.970;10.082;2022-09-09T08:36:03;3.03;;;1.52;;
64188;SDS011;50493;50.970;10.082;2022-09-09T08:38:29;4.63;;;1.80;;
64188;SDS011;50493;50.970;10.082;2022-09-09T08:40:55;2.53;;;1.60;;
64188;SDS011;50493;50.970;10.082;2022-09-09T08:43:29;3.78;;;2.00;;
64188;SDS011;50493;50.970;10.082;2022-09-09T08:45:59;5.70;;;1.60;;
64188;SDS011;50493;50.970;10.082;2022-09-09T08:48:38;2.97;;;1.65;;
64188;SDS011;50493;50.970;10.082;2022-09-09T08:51:10;3.50;;;1.75;;
64188;SDS011;50493;50.970;10.082;2022-09-09T08:53:39;3.45;;;1.70;;
64188;SDS011;50493;50.970;10.082;2022-09-09T08:56:09;3.63;;;1.65;;
64188;SDS011;50493;50.970;10.082;2022-09-09T08:58:40;3.00;;;1.67;;
64188;SDS011;50493;50.970;10.082;2022-09-09T09:01:19;2.88;;;1.50;;
64188;SDS011;50493;50.970;10.082;2022-09-09T09:04:07;4.28;;;1.40;;
64188;SDS011;50493;50.970;10.082;2022-09-09T09:06:46;4.97;;;1.52;;
64188;SDS011;50493;50.970;10.082;2022-09-09T09:09:21;3.45;;;1.42;;
64188;SDS011;50493;50.970;10.082;2022-09-09T09:11:52;3.65;;;1.40;;
64188;SDS011;50493;50.970;10.082;2022-09-09T09:14:20;5.25;;;1.50;;
64188;SDS011;50493;50.970;10.082;2022-09-09T09:16:50;2.97;;;1.40;;
64188;SDS011;50493;50.970;10.082;2022-09-09T09:19:19;3.70;;;1.40;;
64188;SDS011;50493;50.970;10.082;2022-09-09T09:21:48;5.63;;;1.40;;
64188;SDS011;50493;50.970;10.082;2022-09-09T09:24:20;5.63;;;1.65;;
64188;SDS011;50493;50.970;10.082;2022-09-09T09:26:48;4.20;;;1.30;;
64188;SDS011;50493;50.970;10.082;2022-09-09T09:29:15;3.67;;;1.33;;
64188;SDS011;50493;50.970;10.082;2022-09-09T09:31:42;2.38;;;1.30;;
64188;SDS011;50493;50.970;10.082;2022-09-09T09:34:14;3.47;;;1.48;;
64188;SDS011;50493;50.970;10.082;2022-09-09T09:36:40;5.03;;;1.52;;
64188;SDS011;50493;50.970;10.082;2022-09-09T09:39:09;3.28;;;1.30;;
64188;SDS011;50493;50.970;10.082;2022-09-09T09:41:36;2.40;;;1.60;;
64188;SDS011;50493;50.970;10.082;2022-09-09T09:44:04;4.25;;;1.38;;
64188;SDS011;50493;50.970;10.082;2022-09-09T09:46:31;3.97;;;1.50;;
64188;SDS011;50493;50.970;10.082;2022-09-09T09:48:57;4.45;;;1.50;;
64188;SDS011;50493;50.970;10.082;2022-09-09T09:51:25;4.32;;;1.48;;
64188;SDS011;50493;50.970;10.082;2022-09-09T09:53:51;1.90;;;1.20;;
64188;SDS011;50493;50.970;10.082;2022-09-09T09:56:25;3.05;;;1.27;;
64188;SDS011;50493;50.970;10.082;2022-09-09T09:58:53;4.00;;;1.30;;
64188;SDS011;50493;50.970;10.082;2022-09-09T10:01:20;3.95;;;1.65;;
64188;SDS011;50493;50.970;10.082;2022-09-09T10:03:50;2.58;;;1.40;;
64188;SDS011;50493;50.970;10.082;2022-09-09T10:06:17;4.40;;;1.23;;
64188;SDS011;50493;50.970;10.082;2022-09-09T10:08:45;2.90;;;1.30;;
64188;SDS011;50493;50.970;10.082;2022-09-09T10:11:24;2.80;;;1.30;;
64188;SDS011;50493;50.970;10.082;2022-09-09T10:14:01;3.05;;;1.52;;
64188;SDS011;50493;50.970;10.082;2022-09-09T10:16:37;3.28;;;1.20;;
64188;SDS011;50493;50.970;10.082;2022-09-09T10:19:13;2.15;;;1.20;;
64188;SDS011;50493;50.970;10.082;2022-09-09T10:21:46;6.18;;;1.25;;
64188;SDS011;50493;50.970;10.082;2022-09-09T10:27:38;2.13;;;1.40;;
64188;SDS011;50493;50.970;10.082;2022-09-09T10:30:14;4.38;;;1.25;;
64188;SDS011;50493;50.970;10.082;2022-09-09T10:32:48;3.85;;;0.98;;
64188;SDS011;50493;50.970;10.082;2022-09-09T10:38:09;4.60;;;1.08;;
64188;SDS011;50493;50.970;10.082;2022-09-09T10:40:41;2.95;;;1.10;;
64188;SDS011;50493;50.970;10.082;2022-09-09T10:43:16;3.28;;;1.30;;
64188;SDS011;50493;50.970;10.082;2022-09-09T10:45:56;3.38;;;1.60;;
64188;SDS011;50493;50.970;10.082;2022-09-09T10:48:31;4.35;;;1.40;;
64188;SDS011;50493;50.970;10.082;2022-09-09T10:51:09;4.78;;;1.45;;
64188;SDS011;50493;50.970;10.082;2022-09-09T10:53:45;4.05;;;1.50;;
64188;SDS011;50493;50.970;10.082;2022-09-09T10:56:18;4.22;;;1.30;;
64188;SDS011;50493;50.970;10.082;2022-09-09T10:58:48;3.35;;;1.35;;
64188;SDS011;50493;50.970;10.082;2022-09-09T11:01:19;4.35;;;1.25;;
64188;SDS011;50493;50.970;10.082;2022-09-09T11:03:49;2.95;;;1.40;;
64188;SDS011;50493;50.970;10.082;2022-09-09T11:06:21;4.18;;;1.40;;
64188;SDS011;50493;50.970;10.082;2022-09-09T11:08:53;2.38;;;1.50;;
64188;SDS011;50493;50.970;10.082;2022-09-09T11:11:25;3.13;;;1.10;;
64188;SDS011;50493;50.970;10.082;2022-09-09T11:13:58;3.75;;;1.55;;
64188;SDS011;50493;50.970;10.082;2022-09-09T11:16:29;3.10;;;1.40;;
64188;SDS011;50493;50.970;10.082;2022-09-09T11:19:00;2.45;;;1.42;;
64188;SDS011;50493;50.970;10.082;2022-09-09T11:21:30;5.32;;;1.52;;
64188;SDS011;50493;50.970;10.082;2022-09-09T11:23:59;2.75;;;1.30;;
64188;SDS011;50493;50.970;10.082;2022-09-09T11:26:31;3.65;;;1.40;;
64188;SDS011;50493;50.970;10.082;2022-09-09T11:29:11;4.75;;;1.10;;
64188;SDS011;50493;50.970;10.082;2022-09-09T11:31:56;4.20;;;1.35;;
64188;SDS011;50493;50.970;10.082;2022-09-09T11:34:34;4.10;;;1.25;;
64188;SDS011;50493;50.970;10.082;2022-09-09T11:37:09;4.95;;;1.30;;
64188;SDS011;50493;50.970;10.082;2022-09-09T11:39:50;4.25;;;1.27;;
64188;SDS011;50493;50.970;10.082;2022-09-09T11:42:29;2.67;;;1.17;;
64188;SDS011;50493;50.970;10.082;2022-09-09T11:44:56;3.40;;;1.30;;
64188;SDS011;50493;50.970;10.082;2022-09-09T11:47:23;4.03;;;1.23;;
64188;SDS011;50493;50.970;10.082;2022-09-09T11:49:54;3.03;;;1.40;;
64188;SDS011;50493;50.970;10.082;2022-09-09T11:52:21;3.25;;;1.30;;
64188;SDS011;50493;50.970;10.082;2022-09-09T11:54:50;3.72;;;1.40;;
64188;SDS011;50493;50.970;10.082;2022-09-09T11:57:21;4.88;;;1.40;;
64188;SDS011;50493;50.970;10.082;2022-09-09T11:59:51;3.22;;;1.40;;
64188;SDS011;50493;50.970;10.082;2022-09-09T12:02:23;3.70;;;1.27;;
64188;SDS011;50493;50.970;10.082;2022-09-09T12:04:54;3.47;;;1.45;;
64188;SDS011;50493;50.970;10.082;2022-09-09T12:07:28;3.38;;;1.73;;
64188;SDS011;50493;50.970;10.082;2022-09-09T12:09:58;2.95;;;1.50;;
64188;SDS011;50493;50.970;10.082;2022-09-09T12:12:28;2.67;;;1.27;;
64188;SDS011;50493;50.970;10.082;2022-09-09T12:15:02;3.92;;;1.20;;
64188;SDS011;50493;50.970;10.082;2022-09-09T12:17:47;3.30;;;1.20;;
64188;SDS011;50493;50.970;10.082;2022-09-09T12:20:16;5.00;;;1.30;;
64188;SDS011;50493;50.970;10.082;2022-09-09T12:22:46;4.32;;;1.30;;
64188;SDS011;50493;50.970;10.082;2022-09-09T12:25:22;4.80;;;1.40;;
64188;SDS011;50493;50.970;10.082;2022-09-09T12:27:58;3.50;;;1.35;;
64188;SDS011;50493;50.970;10.082;2022-09-09T12:30:31;2.95;;;1.20;;
64188;SDS011;50493;50.970;10.082;2022-09-09T12:33:02;3.17;;;1.40;;
64188;SDS011;50493;50.970;10.082;2022-09-09T12:35:35;3.95;;;1.40;;
64188;SDS011;50493;50.970;10.082;2022-09-09T12:38:03;1.98;;;1.15;;
64188;SDS011;50493;50.970;10.082;2022-09-09T12:40:32;2.70;;;1.10;;
64188;SDS011;50493;50.970;10.082;2022-09-09T12:43:00;2.38;;;1.33;;
64188;SDS011;50493;50.970;10.082;2022-09-09T12:45:26;2.85;;;1.08;;
64188;SDS011;50493;50.970;10.082;2022-09-09T12:47:57;2.95;;;1.00;;
64188;SDS011;50493;50.970;10.082;2022-09-09T12:50:27;1.95;;;1.00;;
64188;SDS011;50493;50.970;10.082;2022-09-09T12:52:56;2.40;;;0.93;;
64188;SDS011;50493;50.970;10.082;2022-09-09T12:55:25;2.53;;;0.90;;
64188;SDS011;50493;50.970;10.082;2022-09-09T12:57:55;2.58;;;0.95;;
64188;SDS011;50493;50.970;10.082;2022-09-09T13:00:23;2.53;;;0.70;;
64188;SDS011;50493;50.970;10.082;2022-09-09T13:02:50;1.45;;;0.70;;
64188;SDS011;50493;50.970;10.082;2022-09-09T13:05:19;4.40;;;0.90;;
64188;SDS011;50493;50.970;10.082;2022-09-09T13:07:47;2.67;;;0.95;;
64188;SDS011;50493;50.970;10.082;2022-09-09T13:10:14;1.67;;;0.90;;
64188;SDS011;50493;50.970;10.082;2022-09-09T13:12:44;3.08;;;0.80;;
64188;SDS011;50493;50.970;10.082;2022-09-09T13:15:15;4.88;;;0.60;;
64188;SDS011;50493;50.970;10.082;2022-09-09T13:17:49;2.30;;;1.15;;
64188;SDS011;50493;50.970;10.082;2022-09-09T13:20:16;2.30;;;0.70;;
64188;SDS011;50493;50.970;10.082;2022-09-09T13:22:43;3.53;;;1.13;;
64188;SDS011;50493;50.970;10.082;2022-09-09T13:25:17;5.60;;;0.98;;
64188;SDS011;50493;50.970;10.082;2022-09-09T13:27:51;2.85;;;1.00;;
64188;SDS011;50493;50.970;10.082;2022-09-09T13:30:22;1.88;;;0.80;;
64188;SDS011;50493;50.970;10.082;2022-09-09T13:32:59;2.15;;;0.70;;
64188;SDS011;50493;50.970;10.082;2022-09-09T13:35:26;2.75;;;0.70;;
64188;SDS011;50493;50.970;10.082;2022-09-09T13:37:52;2.33;;;0.80;;
64188;SDS011;50493;50.970;10.082;2022-09-09T13:40:20;2.15;;;1.00;;
64188;SDS011;50493;50.970;10.082;2022-09-09T13:42:46;2.58;;;0.90;;
64188;SDS011;50493;50.970;10.082;2022-09-09T13:45:15;2.47;;;0.90;;
64188;SDS011;50493;50.970;10.082;2022-09-09T13:47:42;2.35;;;0.73;;
64188;SDS011;50493;50.970;10.082;2022-09-09T13:50:18;1.83;;;0.80;;
64188;SDS011;50493;50.970;10.082;2022-09-09T13:52:44;2.72;;;0.90;;
64188;SDS011;50493;50.970;10.082;2022-09-09T13:55:10;1.27;;;0.90;;
64188;SDS011;50493;50.970;10.082;2022-09-09T13:57:37;1.58;;;0.98;;
64188;SDS011;50493;50.970;10.082;2022-09-09T14:00:03;2.97;;;1.00;;
64188;SDS011;50493;50.970;10.082;2022-09-09T14:02:31;2.30;;;0.90;;
64188;SDS011;50493;50.970;10.082;2022-09-09T14:04:57;2.28;;;0.80;;
64188;SDS011;50493;50.970;10.082;2022-09-09T14:07:22;1.15;;;0.75;;
64188;SDS011;50493;50.970;10.082;2022-09-09T14:09:47;1.63;;;0.80;;
64188;SDS011;50493;50.970;10.082;2022-09-09T14:12:15;3.15;;;0.80;;
64188;SDS011;50493;50.970;10.082;2022-09-09T14:14:42;0.93;;;0.50;;
64188;SDS011;50493;50.970;10.082;2022-09-09T14:17:08;1.45;;;0.80;;
64188;SDS011;50493;50.970;10.082;2022-09-09T14:19:34;2.35;;;0.60;;
64188;SDS011;50493;50.970;10.082;2022-09-09T14:22:00;3.97;;;0.80;;
64188;SDS011;50493;50.970;10.082;2022-09-09T14:24:26;3.42;;;0.77;;
64188;SDS011;50493;50.970;10.082;2022-09-09T14:26:52;1.67;;;0.65;;
64188;SDS011;50493;50.970;10.082;2022-09-09T14:29:17;2.80;;;0.80;;
64188;SDS011;50493;50.970;10.082;2022-09-09T14:31:44;1.05;;;0.65;;
64188;SDS011;50493;50.970;10.082;2022-09-09T14:34:09;1.60;;;0.90;;
64188;SDS011;50493;50.970;10.082;2022-09-09T14:36:35;2.00;;;1.00;;
64188;SDS011;50493;50.970;10.082;2022-09-09T14:39:01;2.15;;;0.80;;
64188;SDS011;50493;50.970;10.082;2022-09-09T14:41:26;1.63;;;0.90;;
64188;SDS011;50493;50.970;10.082;2022-09-09T14:43:52;2.22;;;0.90;;
64188;SDS011;50493;50.970;10.082;2022-09-09T14:46:19;1.88;;;0.90;;
64188;SDS011;50493;50.970;10.082;2022-09-09T14:48:46;3.33;;;0.98;;
64188;SDS011;50493;50.970;10.082;2022-09-09T14:51:15;1.75;;;0.50;;
64188;SDS011;50493;50.970;10.082;2022-09-09T14:53:42;2.03;;;0.70;;
64188;SDS011;50493;50.970;10.082;2022-09-09T14:56:09;1.65;;;0.70;;
64188;SDS011;50493;50.970;10.082;2022-09-09T14:58:37;2.33;;;1.00;;
64188;SDS011;50493;50.970;10.082;2022-09-09T15:01:06;1.33;;;0.82;;